Time;durP1;ratioP1;P1;durP2;ratioP2;P2;SDS_P1;SDS_P2;PMS_P1;PMS_P2;Temp;Humidity;BMP_temperature;BMP_pressure;BME280_temperature;BME280_humidity;BME280_pressure;Samples;Min_cycle;Max_cycle;Signal;HPM_P1;HPM_P2
2021/01/25 00:01:35;;;;;;;0.50;0.40;;;;;;;-0.10;93.73;97465.30;1741048;81;21716;-87
2021/01/25 00:04:02;;;;;;;0.60;0.40;;;;;;;-0.08;93.88;97472.50;1769129;81;21611;-88
2021/01/25 00:06:29;;;;;;;0.20;0.20;;;;;;;-0.07;93.92;97466.00;1750894;80;22348;-86
2021/01/25 00:08:56;;;;;;;0.30;0.30;;;;;;;-0.04;93.93;97465.88;1752111;81;21124;-86
2021/01/25 00:11:23;;;;;;;0.37;0.30;;;;;;;-0.02;93.94;97461.98;1763627;81;21135;-88
2021/01/25 00:13:50;;;;;;;0.30;0.20;;;;;;;-0.01;93.85;97464.92;1759544;81;21166;-87
2021/01/25 00:16:17;;;;;;;0.50;0.50;;;;;;;-0.06;93.67;97467.66;1761069;81;21579;-88
2021/01/25 00:18:46;;;;;;;0.70;0.40;;;;;;;-0.05;93.82;97462.11;1753680;81;22169;-88
2021/01/25 00:21:13;;;;;;;0.70;0.30;;;;;;;-0.04;93.89;97460.75;1748187;80;21196;-87
2021/01/25 00:23:40;;;;;;;0.30;0.30;;;;;;;-0.04;93.83;97459.92;1757040;80;21208;-86
2021/01/25 00:26:07;;;;;;;0.33;0.20;;;;;;;-0.07;93.74;97463.89;1761063;81;21192;-87
2021/01/25 00:28:34;;;;;;;0.68;0.28;;;;;;;-0.10;93.64;97466.59;1747868;81;21153;-88
2021/01/25 00:31:01;;;;;;;0.62;0.30;;;;;;;-0.15;93.71;97469.78;1747630;80;21280;-88
2021/01/25 00:33:28;;;;;;;0.40;0.23;;;;;;;-0.14;93.80;97466.30;1829610;76;21669;-87
2021/01/25 00:35:55;;;;;;;0.42;0.33;;;;;;;-0.16;93.72;97473.25;1826623;76;21236;-89
2021/01/25 00:38:22;;;;;;;2.15;0.40;;;;;;;-0.16;93.86;97465.55;1820335;77;21130;-87
2021/01/25 00:40:49;;;;;;;0.40;0.30;;;;;;;-0.15;93.93;97467.21;1799285;78;21685;-86
2021/01/25 00:43:16;;;;;;;0.20;0.20;;;;;;;-0.16;93.82;97477.09;1815975;78;22182;-86
2021/01/25 00:45:43;;;;;;;0.37;0.33;;;;;;;-0.16;93.89;97474.53;1779375;80;21210;-89
2021/01/25 00:48:11;;;;;;;0.45;0.23;;;;;;;-0.21;93.78;97473.42;1782928;80;21149;-87
2021/01/25 00:50:37;;;;;;;;;;;;;;;-0.25;93.85;97477.84;1779415;78;21174;-85
2021/01/25 00:53:04;;;;;;;0.72;0.30;;;;;;;-0.27;93.87;97471.94;1764607;79;20246;-88
2021/01/25 00:55:31;;;;;;;0.45;0.30;;;;;;;-0.31;93.88;97478.09;1767659;79;21206;-83
2021/01/25 00:57:58;;;;;;;0.40;0.20;;;;;;;-0.32;93.92;97486.66;1754526;79;21709;-87
2021/01/25 01:00:25;;;;;;;0.10;0.10;;;;;;;-0.35;94.03;97479.55;1779251;78;26130;-87
2021/01/25 01:02:52;;;;;;;0.20;0.20;;;;;;;-0.32;94.12;97484.09;1783181;79;21151;-84
2021/01/25 01:05:20;;;;;;;0.40;0.30;;;;;;;-0.35;93.94;97480.83;1750224;80;21171;-88
2021/01/25 01:07:48;;;;;;;0.60;0.28;;;;;;;-0.36;94.01;97484.30;1783473;79;21723;-88
2021/01/25 01:10:15;;;;;;;0.30;0.30;;;;;;;-0.36;94.08;97489.43;1785894;79;21582;-90
2021/01/25 01:12:42;;;;;;;0.28;0.25;;;;;;;-0.40;94.08;97491.25;1752565;81;21171;-89
2021/01/25 01:15:14;;;;;;;0.28;0.23;;;;;;;-0.54;94.21;97478.14;1755167;81;21359;-85
2021/01/25 01:17:44;;;;;;;0.62;0.20;;;;;;;-0.54;94.21;97478.14;1780616;79;21130;-87
2021/01/25 01:20:12;;;;;;;0.28;0.28;;;;;;;-0.44;94.19;97502.53;1782249;79;21236;-86
2021/01/25 01:22:39;;;;;;;0.40;0.20;;;;;;;-0.45;94.14;97505.97;1785531;79;21238;-85
2021/01/25 01:25:09;;;;;;;0.45;0.33;;;;;;;-0.43;94.25;97504.19;1765645;79;21132;-87
2021/01/25 01:27:36;;;;;;;0.40;0.20;;;;;;;-0.43;94.22;97504.65;1774904;79;21117;-85
2021/01/25 01:30:08;;;;;;;0.13;0.13;;;;;;;-0.46;94.20;97503.86;1770608;79;21142;-87
2021/01/25 01:32:36;;;;;;;0.10;0.10;;;;;;;-0.49;94.22;97507.00;1772974;79;21146;-88
2021/01/25 01:35:07;;;;;;;0.28;0.10;;;;;;;-0.49;94.30;97509.56;1763332;79;21159;-87
2021/01/25 01:37:35;;;;;;;0.45;0.20;;;;;;;-0.47;94.31;97515.47;1754322;81;21127;-86
2021/01/25 01:40:09;;;;;;;0.15;0.10;;;;;;;-0.49;94.27;97523.66;1752169;79;21147;-88
2021/01/25 01:42:38;;;;;;;0.10;0.10;;;;;;;-0.47;94.30;97521.88;1789169;79;21563;-85
2021/01/25 01:45:08;;;;;;;0.20;0.20;;;;;;;-0.44;94.35;97528.17;1777392;79;21208;-87
2021/01/25 01:47:38;;;;;;;0.10;0.10;;;;;;;-0.41;94.31;97533.18;1789707;79;21175;-86
2021/01/25 01:50:07;;;;;;;0.20;0.20;;;;;;;-0.39;94.35;97531.41;1758143;81;21557;-86
2021/01/25 01:52:34;;;;;;;0.10;0.10;;;;;;;-0.36;94.30;97533.84;1784103;79;21610;-85
2021/01/25 01:55:03;;;;;;;0.20;0.20;;;;;;;-0.35;94.19;97535.51;1753740;81;21163;-86
2021/01/25 01:57:34;;;;;;;0.28;0.20;;;;;;;-0.36;94.17;97542.82;1746919;81;21210;-87
2021/01/25 02:00:05;;;;;;;0.20;0.20;;;;;;;-0.35;94.22;97539.35;1742441;81;21209;-85
2021/01/25 02:02:32;;;;;;;0.10;0.10;;;;;;;-0.34;94.22;97550.44;1759768;79;21609;-87
2021/01/25 02:04:59;;;;;;;0.28;0.28;;;;;;;-0.34;94.18;97553.83;1757082;81;21176;-84
2021/01/25 02:07:29;;;;;;;0.10;0.10;;;;;;;-0.33;94.20;97554.24;1758604;79;21148;-85
2021/01/25 02:09:59;;;;;;;0.20;0.20;;;;;;;-0.35;94.12;97553.45;1728709;81;21188;-87
2021/01/25 02:12:26;;;;;;;0.20;0.20;;;;;;;-0.38;94.07;97551.01;1744469;80;21683;-87
2021/01/25 02:14:54;;;;;;;0.20;0.20;;;;;;;-0.39;94.13;97554.48;1781687;79;21115;-87
2021/01/25 02:17:20;;;;;;;0.10;0.10;;;;;;;-0.38;94.21;97558.70;1761114;79;21163;-88
2021/01/25 02:20:15;;;;;;;0.10;0.10;;;;;;;-0.41;94.05;97558.82;1745242;81;21206;-86
2021/01/25 02:23:26;;;;;;;0.10;0.10;;;;;;;-0.41;94.11;97563.95;1725255;81;22268;-89
2021/01/25 02:26:30;;;;;;;0.10;0.10;;;;;;;-0.43;94.06;97569.57;1756266;80;21177;-86
2021/01/25 02:28:58;;;;;;;0.42;0.20;;;;;;;-0.46;94.19;97563.28;1774226;80;21107;-88
2021/01/25 02:31:28;;;;;;;0.25;0.10;;;;;;;-0.48;94.17;97570.19;1773879;80;21490;-89
2021/01/25 02:34:00;;;;;;;0.23;0.20;;;;;;;-0.51;94.17;97579.27;1757547;80;21115;-86
2021/01/25 02:36:29;;;;;;;0.20;0.20;;;;;;;-0.51;94.23;97578.83;1751512;80;21216;-88
2021/01/25 02:39:00;;;;;;;0.25;0.10;;;;;;;-0.53;94.25;97579.80;1776260;80;21142;-88
2021/01/25 02:41:29;;;;;;;1.30;0.10;;;;;;;-0.52;94.24;97589.15;1753032;81;21164;-85
2021/01/25 02:44:02;;;;;;;0.20;0.20;;;;;;;-0.52;94.23;97582.74;1778765;79;21218;-88
2021/01/25 02:46:30;;;;;;;0.23;0.10;;;;;;;-0.57;94.23;97589.30;1767389;79;21142;-88
2021/01/25 02:48:58;;;;;;;0.30;0.17;;;;;;;-0.59;94.25;97585.95;1779870;79;21472;-85
2021/01/25 02:51:25;;;;;;;0.20;0.20;;;;;;;-0.59;94.26;97600.50;1772973;79;21215;-84
2021/01/25 02:53:52;;;;;;;0.10;0.10;;;;;;;-0.62;94.33;97590.37;1747453;79;21162;-85
2021/01/25 02:56:19;;;;;;;0.23;0.20;;;;;;;-0.62;94.29;97596.33;1761123;81;21184;-87
2021/01/25 02:58:47;;;;;;;0.23;0.23;;;;;;;-0.64;94.28;97589.16;1776262;80;21183;-85
2021/01/25 03:01:14;;;;;;;0.28;0.13;;;;;;;-0.64;94.29;97595.56;1765588;79;22189;-88
2021/01/25 03:03:41;;;;;;;0.80;0.20;;;;;;;-0.64;94.34;97593.42;1774265;80;21265;-87
2021/01/25 03:06:11;;;;;;;0.28;0.28;;;;;;;-0.65;94.32;97598.17;1763045;81;21162;-84
2021/01/25 03:08:39;;;;;;;0.23;0.20;;;;;;;-0.66;94.36;97596.51;1777762;80;21215;-83
2021/01/25 03:11:06;;;;;;;0.10;0.10;;;;;;;-0.66;94.34;97605.03;1782482;79;21130;-87
2021/01/25 03:13:33;;;;;;;0.20;0.20;;;;;;;-0.66;94.34;97597.80;1746463;81;22168;-84
2021/01/25 03:16:02;;;;;;;0.28;0.28;;;;;;;-0.65;94.41;97599.00;1769576;80;21114;-88
2021/01/25 03:18:29;;;;;;;0.42;0.20;;;;;;;-0.65;94.38;97605.86;1762277;80;21161;-87
2021/01/25 03:20:56;;;;;;;0.13;0.13;;;;;;;-0.66;94.40;97610.61;1757978;81;21614;-87
2021/01/25 03:23:23;;;;;;;0.65;0.20;;;;;;;-0.71;94.42;97602.62;1775880;80;21232;-86
2021/01/25 03:25:50;;;;;;;0.75;0.30;;;;;;;-0.69;94.46;97607.25;1779730;80;22088;-87
2021/01/25 03:28:17;;;;;;;0.30;0.20;;;;;;;-0.70;94.48;97610.72;1772326;80;21157;-86
2021/01/25 03:30:44;;;;;;;0.35;0.30;;;;;;;-0.70;94.44;97609.86;1763530;80;21226;-86
2021/01/25 03:33:11;;;;;;;0.65;0.30;;;;;;;-0.71;94.48;97615.44;1770144;80;21172;-87
2021/01/25 03:35:38;;;;;;;0.30;0.30;;;;;;;-0.66;94.55;97620.86;1774839;80;21174;-85
2021/01/25 03:38:05;;;;;;;0.30;0.30;;;;;;;-0.64;94.49;97628.02;1758410;80;22113;-87
2021/01/25 03:40:33;;;;;;;0.20;0.20;;;;;;;-0.65;94.46;97628.92;1770830;80;21246;-85
2021/01/25 03:43:01;;;;;;;0.20;0.20;;;;;;;-0.64;94.48;97626.32;1769143;80;21178;-84
2021/01/25 03:45:27;;;;;;;0.50;0.30;;;;;;;-0.60;94.51;97629.60;1778561;80;21457;-88
2021/01/25 03:47:54;;;;;;;0.20;0.20;;;;;;;-0.62;94.47;97634.77;1768198;80;21147;-88
2021/01/25 03:50:21;;;;;;;0.62;0.33;;;;;;;-0.60;94.48;97632.16;1778169;80;21621;-86
2021/01/25 03:52:48;;;;;;;0.45;0.30;;;;;;;-0.63;94.46;97627.98;1755480;80;21618;-87
2021/01/25 03:55:15;;;;;;;1.62;0.57;;;;;;;-0.62;94.41;97636.50;1771728;80;21151;-87
2021/01/25 03:57:42;;;;;;;0.90;0.40;;;;;;;-0.63;94.46;97632.28;1768801;80;21164;-84
2021/01/25 04:00:10;;;;;;;1.30;0.72;;;;;;;-0.59;94.49;97623.58;1782966;80;21139;-87
2021/01/25 04:02:37;;;;;;;0.75;0.70;;;;;;;-0.62;94.42;97633.94;1782474;80;22251;-84
2021/01/25 04:05:05;;;;;;;0.75;0.50;;;;;;;-0.60;94.51;97627.04;1777228;80;21162;-87
2021/01/25 04:07:32;;;;;;;0.98;0.50;;;;;;;-0.62;94.43;97631.37;1757221;80;21140;-87
2021/01/25 04:09:59;;;;;;;0.47;0.30;;;;;;;-0.64;94.42;97638.27;1784612;80;21618;-87
2021/01/25 04:12:26;;;;;;;0.50;0.40;;;;;;;-0.64;94.49;97648.53;1768955;80;21101;-87
2021/01/25 04:14:53;;;;;;;0.30;0.30;;;;;;;-0.66;94.42;97650.33;1786616;80;22260;-88
2021/01/25 04:17:19;;;;;;;0.68;0.40;;;;;;;-0.69;94.45;97649.54;1746232;81;21190;-86
2021/01/25 04:19:46;;;;;;;0.65;0.40;;;;;;;-0.66;94.48;97656.73;1744824;81;21173;-87
2021/01/25 04:22:13;;;;;;;0.85;0.75;;;;;;;-0.64;94.54;97660.06;1762067;79;21210;-85
2021/01/25 04:24:41;;;;;;;0.98;0.60;;;;;;;-0.64;94.52;97658.78;1777468;79;21157;-86
2021/01/25 04:27:11;;;;;;;0.62;0.42;;;;;;;-0.65;94.52;97664.80;1757167;79;22179;-85
2021/01/25 04:29:37;;;;;;;0.90;0.40;;;;;;;-0.67;94.52;97659.75;1786138;79;21197;-85
2021/01/25 04:32:05;;;;;;;1.40;0.60;;;;;;;-0.66;94.64;97669.55;1765599;79;21836;-87
2021/01/25 04:34:32;;;;;;;0.90;0.80;;;;;;;-0.65;94.61;97659.68;1776134;79;27488;-84
2021/01/25 04:36:59;;;;;;;2.42;0.68;;;;;;;-0.63;94.60;97664.31;1756755;81;21149;-85
2021/01/25 04:39:26;;;;;;;2.77;0.80;;;;;;;-0.58;94.68;97670.95;1739138;81;21218;-84
2021/01/25 04:41:52;;;;;;;1.87;1.10;;;;;;;-0.53;94.66;97674.65;1782190;79;21708;-84
2021/01/25 04:44:23;;;;;;;1.10;1.00;;;;;;;-0.49;94.64;97679.59;1735484;82;21162;-85
2021/01/25 04:46:51;;;;;;;2.25;1.02;;;;;;;-0.46;94.55;97681.22;1747041;79;21139;-87
2021/01/25 04:49:20;;;;;;;1.45;1.20;;;;;;;-0.45;94.49;97685.44;1740396;81;21175;-85
2021/01/25 04:51:47;;;;;;;3.65;1.10;;;;;;;-0.49;94.34;97678.77;1789196;79;22194;-84
2021/01/25 04:54:14;;;;;;;2.20;1.22;;;;;;;-0.50;94.38;97677.10;1754528;81;21159;-87
2021/01/25 04:56:42;;;;;;;2.40;1.30;;;;;;;-0.49;94.42;97676.20;1744365;81;21135;-86
2021/01/25 04:59:09;;;;;;;;;;;;;;;-0.49;94.44;97674.92;1785792;79;21598;-85
2021/01/25 05:01:36;;;;;;;1.30;1.20;;;;;;;-0.49;94.45;97674.47;1759869;79;20225;-86
2021/01/25 05:04:03;;;;;;;2.35;1.67;;;;;;;-0.50;94.35;97668.95;1756214;81;22158;-85
2021/01/25 05:06:30;;;;;;;1.60;1.40;;;;;;;-0.51;94.40;97680.53;1786791;79;21222;-86
2021/01/25 05:08:57;;;;;;;4.12;1.50;;;;;;;-0.51;94.46;97676.23;1765908;79;21111;-86
2021/01/25 05:11:24;;;;;;;1.15;0.98;;;;;;;-0.53;94.37;97674.65;1757621;79;21233;-86
2021/01/25 05:14:05;;;;;;;1.37;0.65;;;;;;;-0.57;94.28;97678.20;1770759;79;21152;-86
2021/01/25 05:16:33;;;;;;;1.00;0.80;;;;;;;-0.61;94.32;97681.77;1774705;79;22127;-85
2021/01/25 05:19:04;;;;;;;1.40;0.47;;;;;;;-0.69;94.26;97679.02;1761059;80;21213;-85
2021/01/25 05:21:44;;;;;;;0.85;0.40;;;;;;;-0.70;94.42;97685.04;1750265;80;21178;-87
2021/01/25 05:24:12;;;;;;;1.62;0.70;;;;;;;-0.72;94.43;97685.53;1747364;80;21628;-86
2021/01/25 05:26:58;;;;;;;1.02;0.60;;;;;;;-0.68;94.58;97693.94;1741099;80;21577;-87
2021/01/25 05:29:28;;;;;;;1.15;1.00;;;;;;;-0.65;94.61;97691.72;1770895;80;21226;-85
2021/01/25 05:31:56;;;;;;;0.82;0.80;;;;;;;-0.63;94.61;97704.05;1753396;80;21162;-84
2021/01/25 05:34:24;;;;;;;2.30;1.30;;;;;;;-0.58;94.67;97704.73;1772087;80;21637;-86
2021/01/25 05:36:51;;;;;;;3.65;2.00;;;;;;;-0.55;94.64;97712.31;1745788;80;21205;-85
2021/01/25 05:39:20;;;;;;;3.92;2.65;;;;;;;-0.49;94.69;97714.66;1749737;80;21260;-85
2021/01/25 05:41:54;;;;;;;5.12;3.15;;;;;;;-0.46;94.57;97724.80;1751932;80;22331;-83
2021/01/25 05:44:23;;;;;;;5.40;3.52;;;;;;;-0.46;94.52;97727.36;1726997;80;21166;-86
2021/01/25 05:46:50;;;;;;;4.75;3.37;;;;;;;-0.42;94.54;97733.21;1746569;80;21201;-85
2021/01/25 05:49:26;;;;;;;4.08;2.80;;;;;;;-0.39;94.54;97727.97;1773649;80;21150;-83
2021/01/25 05:51:54;;;;;;;3.65;2.52;;;;;;;-0.36;94.55;97731.29;1751353;80;21750;-84
2021/01/25 05:54:23;;;;;;;3.95;1.92;;;;;;;-0.32;94.55;97735.41;1751082;80;21201;-84
2021/01/25 05:56:51;;;;;;;3.55;2.65;;;;;;;-0.30;94.55;97738.77;1714843;82;21573;-86
2021/01/25 05:59:18;;;;;;;2.37;2.10;;;;;;;-0.28;94.55;97731.86;1756117;80;21193;-85
2021/01/25 06:01:47;;;;;;;;;;;;;;;-0.25;94.50;97741.17;1770266;80;21146;-86
2021/01/25 06:04:19;;;;;;;2.17;1.80;;;;;;;-0.26;94.46;97743.33;1757996;80;20266;-86
2021/01/25 06:06:54;;;;;;;5.03;1.70;;;;;;;-0.25;94.48;97747.59;1766160;80;21200;-86
2021/01/25 06:09:53;;;;;;;4.92;2.55;;;;;;;-0.28;94.35;97756.22;1746012;80;21696;-84
2021/01/25 06:12:28;;;;;;;6.95;3.10;;;;;;;-0.26;94.45;97748.01;1734881;80;21210;-83
2021/01/25 06:15:04;;;;;;;7.05;3.67;;;;;;;-0.24;94.51;97762.91;1761510;80;21633;-85
2021/01/25 06:17:34;;;;;;;8.67;4.97;;;;;;;-0.21;94.51;97761.97;1767865;79;21200;-85
2021/01/25 06:20:07;;;;;;;8.18;5.33;;;;;;;-0.20;94.44;97765.36;1777912;79;21280;-85
2021/01/25 06:22:35;;;;;;;7.75;4.00;;;;;;;-0.18;94.51;97772.56;1761751;81;21132;-86
2021/01/25 06:25:07;;;;;;;10.45;3.77;;;;;;;-0.16;94.50;97771.62;1739425;82;21602;-84
2021/01/25 06:27:37;;;;;;;6.15;3.27;;;;;;;-0.18;94.38;97767.44;1757014;79;21149;-86
2021/01/25 06:30:05;;;;;;;8.48;3.65;;;;;;;-0.18;94.39;97773.84;1764484;79;21163;-85
2021/01/25 06:32:36;;;;;;;4.62;2.70;;;;;;;-0.17;94.42;97774.22;1749080;79;21375;-85
2021/01/25 06:35:05;;;;;;;2.72;1.65;;;;;;;-0.18;94.40;97780.26;1744481;81;21193;-85
2021/01/25 06:37:37;;;;;;;4.05;2.27;;;;;;;-0.22;94.32;97774.41;1733546;82;21151;-84
2021/01/25 06:40:12;;;;;;;4.35;2.72;;;;;;;-0.29;94.19;97772.48;1742824;81;21296;-83
2021/01/25 06:42:42;;;;;;;4.20;2.00;;;;;;;-0.33;94.13;97767.08;1750692;81;21143;-85
2021/01/25 06:45:11;;;;;;;3.45;2.58;;;;;;;-0.42;94.02;97781.93;1785595;79;22236;-85
2021/01/25 06:47:39;;;;;;;4.12;3.30;;;;;;;-0.49;94.14;97789.00;1753841;81;21212;-86
2021/01/25 06:50:08;;;;;;;6.12;4.08;;;;;;;-0.49;94.30;97789.00;1786109;79;21102;-86
2021/01/25 06:52:38;;;;;;;6.47;4.42;;;;;;;-0.48;94.41;97793.23;1756531;79;21132;-83
2021/01/25 06:55:08;;;;;;;5.55;4.22;;;;;;;-0.52;94.28;97796.80;1766352;79;21133;-85
2021/01/25 06:57:37;;;;;;;4.97;3.30;;;;;;;-0.51;94.42;97798.46;1756741;79;21379;-82
2021/01/25 07:00:08;;;;;;;6.75;3.92;;;;;;;-0.47;94.53;97807.74;1739204;81;21206;-83
2021/01/25 07:02:58;;;;;;;4.47;2.80;;;;;;;-0.41;94.62;97810.09;1758766;79;21178;-83
2021/01/25 07:05:31;;;;;;;2.45;2.10;;;;;;;-0.37;94.59;97814.22;1749986;81;21647;-83
2021/01/25 07:08:25;;;;;;;2.60;1.90;;;;;;;-0.31;94.60;97815.31;1760458;79;21179;-82
2021/01/25 07:11:05;;;;;;;2.62;1.70;;;;;;;-0.26;94.60;97817.25;1758184;79;21171;-82
2021/01/25 07:13:35;;;;;;;2.33;1.37;;;;;;;-0.20;94.55;97820.50;1733830;81;21215;-81
2021/01/25 07:16:04;;;;;;;2.27;1.67;;;;;;;-0.20;94.41;97817.94;1764024;79;22249;-87
2021/01/25 07:18:31;;;;;;;2.20;2.00;;;;;;;-0.17;94.43;97820.40;1776990;79;21212;-83
2021/01/25 07:21:03;;;;;;;3.58;2.02;;;;;;;-0.15;94.42;97828.88;1765279;79;21206;-85
2021/01/25 07:23:34;;;;;;;2.77;1.82;;;;;;;-0.13;94.38;97829.68;1727726;81;21460;-86
2021/01/25 07:26:03;;;;;;;2.45;2.25;;;;;;;-0.11;94.41;97827.88;1747812;81;21143;-86
2021/01/25 07:28:31;;;;;;;3.17;2.20;;;;;;;-0.07;94.40;97837.16;1748821;80;21265;-86
2021/01/25 07:31:00;;;;;;;3.77;2.47;;;;;;;-0.04;94.32;97839.16;1736057;81;21523;-86
2021/01/25 07:33:27;;;;;;;3.30;2.40;;;;;;;-0.02;94.26;97844.26;1744981;80;21323;-83
2021/01/25 07:35:55;;;;;;;3.75;2.65;;;;;;;-0.02;94.24;97848.10;1736970;81;22152;-86
2021/01/25 07:38:22;;;;;;;3.12;2.70;;;;;;;0.01;94.27;97854.41;1741900;81;21225;-83
2021/01/25 07:40:49;;;;;;;;;;;;;;;0.05;94.21;97852.11;1752662;81;21230;-85
2021/01/25 07:43:18;;;;;;;5.42;3.62;;;;;;;0.12;94.22;97865.14;1755001;81;20233;-86
2021/01/25 07:45:51;;;;;;;6.03;3.80;;;;;;;0.18;94.26;97871.34;1731571;80;21199;-86
2021/01/25 07:48:15;;;;;;;4.22;2.60;;;;;;;0.23;94.25;97875.48;1751772;80;22259;-87
2021/01/25 07:50:54;;;;;;;;;;;;;;;0.23;93.97;97879.34;1760849;80;21147;-83
2021/01/25 07:53:21;;;;;;;5.55;3.10;;;;;;;0.20;93.93;97884.96;1723485;80;20580;-83
2021/01/25 07:55:49;;;;;;;4.33;3.12;;;;;;;0.18;93.83;97886.73;1757215;80;21222;-83
2021/01/25 07:58:17;;;;;;;3.40;3.10;;;;;;;0.25;94.05;97894.22;1821444;78;21129;-83
2021/01/25 08:00:46;;;;;;;6.33;5.53;;;;;;;0.29;93.88;97893.23;1824992;78;21171;-82
2021/01/25 08:03:33;;;;;;;12.82;8.85;;;;;;;0.32;93.99;97895.69;1787269;79;21206;-85
2021/01/25 08:06:05;;;;;;;14.55;8.10;;;;;;;0.36;93.91;97898.53;1745554;79;21641;-86
2021/01/25 08:08:33;;;;;;;15.20;7.37;;;;;;;0.39;94.02;97902.27;1781481;79;21136;-82
2021/01/25 08:11:01;;;;;;;10.80;5.85;;;;;;;0.50;94.16;97913.00;1764247;79;21654;-85
2021/01/25 08:13:41;;;;;;;10.98;5.10;;;;;;;0.56;94.05;97910.23;1720756;81;21163;-88
2021/01/25 08:16:20;;;;;;;9.28;4.85;;;;;;;0.65;94.09;97908.61;1755490;81;21112;-87
2021/01/25 08:19:04;;;;;;;7.37;5.12;;;;;;;0.68;93.81;97915.82;1741665;81;21199;-83
2021/01/25 08:21:36;;;;;;;6.83;4.92;;;;;;;0.73;93.80;97913.90;1694152;84;21234;-82
2021/01/25 08:24:06;;;;;;;9.00;5.25;;;;;;;0.83;93.90;97924.24;1707561;84;21150;-82
2021/01/25 08:26:34;;;;;;;5.70;4.95;;;;;;;0.91;93.77;97924.80;1668027;85;21265;-83
2021/01/25 08:29:08;;;;;;;7.50;5.20;;;;;;;0.98;93.68;97931.40;1672825;85;21215;-86
2021/01/25 08:31:45;;;;;;;8.88;6.10;;;;;;;1.06;93.54;97933.20;1833104;77;22901;-83
2021/01/25 08:34:27;;;;;;;8.23;5.95;;;;;;;1.01;93.31;97942.84;1825521;78;21182;-85
2021/01/25 08:37:12;;;;;;;7.55;6.28;;;;;;;1.05;93.32;97952.11;1817423;78;21197;-86
2021/01/25 08:39:46;;;;;;;13.10;7.10;;;;;;;1.08;93.44;97953.27;1817730;78;21602;-84
2021/01/25 08:42:18;;;;;;;7.25;5.95;;;;;;;1.17;93.56;97949.97;1810703;78;21195;-87
2021/01/25 08:44:56;;;;;;;8.25;5.25;;;;;;;1.24;93.45;97959.14;1817303;78;21121;-86
2021/01/25 08:47:28;;;;;;;;;;;;;;;1.31;93.28;97964.42;1794522;80;21124;-87
2021/01/25 08:49:56;;;;;;;6.25;5.33;;;;;;;1.38;93.29;97953.02;1801780;78;22199;-87
2021/01/25 08:52:31;;;;;;;7.70;5.85;;;;;;;1.41;93.05;97951.62;1801619;78;21168;-86
2021/01/25 08:55:13;;;;;;;9.18;7.03;;;;;;;1.43;93.02;97957.55;1775324;80;21148;-86
2021/01/25 08:57:43;;;;;;;8.95;5.95;;;;;;;1.56;93.29;97954.86;1754388;81;21203;-86
2021/01/25 09:00:18;;;;;;;6.12;5.03;;;;;;;1.62;93.18;97955.08;1746491;81;21195;-86
2021/01/25 09:02:46;;;;;;;7.05;4.87;;;;;;;1.75;93.45;97954.98;1768950;80;21208;-87
2021/01/25 09:05:15;;;;;;;4.60;4.20;;;;;;;1.84;93.26;97964.52;1789130;79;21190;-87
2021/01/25 09:07:48;;;;;;;5.60;4.10;;;;;;;1.88;93.13;97964.35;1768186;80;21176;-86
2021/01/25 09:10:15;;;;;;;7.58;4.83;;;;;;;1.90;93.15;97967.67;1752152;81;21180;-87
2021/01/25 09:12:42;;;;;;;7.62;5.03;;;;;;;1.99;93.33;97969.91;1743392;81;26581;-87
2021/01/25 09:15:10;;;;;;;9.28;6.72;;;;;;;2.15;93.47;97967.52;1737437;80;22057;-88
2021/01/25 09:17:38;;;;;;;7.37;5.85;;;;;;;2.17;93.14;97959.75;1744749;81;21207;-86
2021/01/25 09:20:09;;;;;;;7.78;5.55;;;;;;;2.11;92.52;97965.98;1776387;79;21178;-87
2021/01/25 09:22:37;;;;;;;8.38;6.22;;;;;;;2.07;92.70;97967.45;1774652;80;21239;-88
2021/01/25 09:25:06;;;;;;;;;;;;;;;2.10;92.83;97966.03;1750428;81;21131;-87
2021/01/25 09:27:33;;;;;;;7.30;5.10;;;;;;;2.13;92.93;97963.33;1726366;83;22386;-88
2021/01/25 09:30:03;;;;;;;12.95;6.60;;;;;;;2.10;92.78;97963.46;1759514;79;21195;-86
2021/01/25 09:32:30;;;;;;;6.60;5.75;;;;;;;2.12;93.02;97959.09;1772870;79;21173;-88
2021/01/25 09:34:59;;;;;;;7.83;6.05;;;;;;;2.16;93.02;97964.06;1780335;79;21260;-83
2021/01/25 09:37:27;;;;;;;7.37;6.33;;;;;;;2.23;93.03;97965.92;1756521;81;21128;-87
2021/01/25 09:39:54;;;;;;;7.65;5.97;;;;;;;2.30;93.05;97970.36;1769967;79;22336;-86
2021/01/25 09:42:21;;;;;;;8.43;6.42;;;;;;;2.34;92.86;97967.59;1770231;79;21125;-86
2021/01/25 09:44:50;;;;;;;7.72;6.22;;;;;;;2.34;92.79;97963.73;1775586;79;25163;-87
2021/01/25 09:47:19;;;;;;;10.28;7.30;;;;;;;2.34;92.61;97961.62;1750709;80;21205;-84
2021/01/25 09:49:46;;;;;;;11.00;8.08;;;;;;;2.35;92.71;97969.30;1760636;80;21219;-88
2021/01/25 09:52:13;;;;;;;9.48;6.65;;;;;;;2.40;92.82;97969.91;1768990;79;21255;-89
2021/01/25 09:54:43;;;;;;;9.93;7.22;;;;;;;2.32;92.38;97969.39;1765687;79;21175;-86
2021/01/25 09:57:10;;;;;;;8.30;6.33;;;;;;;2.26;92.56;97969.66;1755867;80;21200;-87
2021/01/25 09:59:37;;;;;;;9.28;7.20;;;;;;;2.30;92.79;97969.93;1759838;80;21207;-86
2021/01/25 10:02:04;;;;;;;7.15;6.45;;;;;;;2.32;92.50;97971.97;1755859;80;21219;-90
2021/01/25 10:04:30;;;;;;;8.18;6.45;;;;;;;2.42;92.89;97973.27;1764687;80;21198;-90
2021/01/25 10:06:57;;;;;;;10.18;6.42;;;;;;;2.53;92.93;97982.30;1748539;80;21181;-87
2021/01/25 10:09:24;;;;;;;8.85;7.03;;;;;;;2.60;92.78;97979.36;1759637;80;21638;-86
2021/01/25 10:11:53;;;;;;;10.80;7.08;;;;;;;2.70;92.78;97982.40;1755525;80;21620;-86
2021/01/25 10:14:20;;;;;;;9.98;7.05;;;;;;;2.80;92.78;97980.25;1757365;80;21137;-82
2021/01/25 10:16:47;;;;;;;8.25;6.78;;;;;;;2.81;92.28;97993.08;1748000;81;21213;-84
2021/01/25 10:19:14;;;;;;;11.63;8.53;;;;;;;2.78;92.53;97984.20;1760693;79;21238;-86
2021/01/25 10:21:41;;;;;;;10.58;7.95;;;;;;;2.82;92.69;97992.16;1761274;79;21576;-84
2021/01/25 10:24:08;;;;;;;9.80;7.92;;;;;;;2.86;92.51;97991.14;1758729;81;26725;-80
2021/01/25 10:26:36;;;;;;;10.30;7.92;;;;;;;2.77;92.24;97995.84;1749215;80;21670;-85
2021/01/25 10:29:03;;;;;;;9.93;7.60;;;;;;;2.80;92.52;97997.86;1758739;81;21214;-82
2021/01/25 10:31:30;;;;;;;16.42;8.75;;;;;;;2.83;92.65;97988.70;1751504;81;21131;-81
2021/01/25 10:33:57;;;;;;;10.08;7.87;;;;;;;2.82;92.42;97992.16;1755317;81;21167;-81
2021/01/25 10:36:25;;;;;;;11.88;7.83;;;;;;;2.81;92.57;97984.06;1769053;80;21230;-85
2021/01/25 10:38:53;;;;;;;10.95;7.60;;;;;;;2.83;92.49;97993.86;1766004;79;21638;-84
2021/01/25 10:41:20;;;;;;;11.35;7.37;;;;;;;2.87;92.40;97994.09;1789933;79;21204;-82
2021/01/25 10:43:48;;;;;;;9.55;6.45;;;;;;;2.91;92.76;98002.09;1773335;79;21222;-81
2021/01/25 10:46:15;;;;;;;9.35;7.25;;;;;;;3.15;93.14;97996.75;1755365;81;21176;-82
2021/01/25 10:48:43;;;;;;;8.00;5.60;;;;;;;3.26;92.52;98004.84;1784171;79;21632;-82
2021/01/25 10:51:11;;;;;;;7.30;6.17;;;;;;;3.20;92.21;97998.67;1724332;83;21200;-83
2021/01/25 10:53:38;;;;;;;6.80;6.10;;;;;;;3.15;92.09;98004.48;1752847;81;21221;-81
2021/01/25 10:56:05;;;;;;;7.40;6.12;;;;;;;3.10;92.20;98009.00;1735744;81;22365;-82
2021/01/25 10:58:32;;;;;;;8.70;6.55;;;;;;;3.01;92.12;98012.00;1755391;81;21610;-82
2021/01/25 11:00:59;;;;;;;6.80;5.90;;;;;;;2.95;92.22;98010.53;1755709;80;21163;-82
2021/01/25 11:03:26;;;;;;;8.25;6.17;;;;;;;2.86;92.14;98005.78;1761735;79;21614;-86
2021/01/25 11:05:53;;;;;;;7.80;6.22;;;;;;;2.77;92.09;98012.14;1756645;80;21207;-82
2021/01/25 11:08:20;;;;;;;10.05;6.40;;;;;;;2.73;92.26;98008.04;1760238;80;21131;-82
2021/01/25 11:10:47;;;;;;;11.75;7.25;;;;;;;2.78;92.29;98013.84;1765618;80;22301;-82
2021/01/25 11:13:15;;;;;;;7.75;6.72;;;;;;;2.73;92.06;98010.61;1765453;79;21203;-84
2021/01/25 11:15:43;;;;;;;6.50;5.80;;;;;;;2.58;91.73;98013.86;1735055;81;21127;-87
2021/01/25 11:18:10;;;;;;;6.33;5.72;;;;;;;2.59;92.14;98018.09;1753065;80;21199;-87
2021/01/25 11:20:37;;;;;;;6.00;5.08;;;;;;;2.56;92.06;98020.80;1736840;81;21218;-87
2021/01/25 11:23:04;;;;;;;5.95;5.25;;;;;;;2.37;91.63;98011.25;1764714;80;21127;-86
2021/01/25 11:25:31;;;;;;;6.87;5.17;;;;;;;2.21;91.54;98012.78;1743566;81;21583;-86
2021/01/25 11:27:58;;;;;;;6.83;6.05;;;;;;;2.07;92.03;98016.36;1740600;81;21108;-86
2021/01/25 11:30:26;;;;;;;7.15;6.25;;;;;;;2.10;92.53;98012.37;1732409;82;21211;-86
2021/01/25 11:33:13;;;;;;;7.83;5.95;;;;;;;2.23;93.01;98006.67;1743593;81;21615;-86
2021/01/25 11:35:52;;;;;;;7.05;6.17;;;;;;;2.36;93.03;98005.73;1751950;80;21209;-85
2021/01/25 11:38:26;;;;;;;9.38;6.75;;;;;;;2.52;93.12;98007.65;1712700;81;21164;-87
2021/01/25 11:40:53;;;;;;;9.70;6.60;;;;;;;2.60;92.81;98014.61;1736597;81;21122;-85
2021/01/25 11:43:20;;;;;;;10.58;7.60;;;;;;;2.62;92.71;98010.23;1751193;81;21411;-85
2021/01/25 11:45:50;;;;;;;10.60;6.22;;;;;;;2.73;93.03;98014.94;1742269;81;21753;-84
2021/01/25 11:48:17;;;;;;;8.68;6.58;;;;;;;2.71;92.63;98016.27;1735396;81;21227;-84